createdAt,value
2022-11-12T00:02:25.619Z,102536.88
2022-11-12T00:05:12.593Z,102531.56
2022-11-12T00:08:00.377Z,102525.41
2022-11-12T00:10:48.687Z,102532.47
2022-11-12T00:13:35.601Z,102539.69
2022-11-12T00:16:22.888Z,102548.50
2022-11-12T00:19:09.957Z,102542.31
2022-11-12T00:21:57.019Z,102529.03
2022-11-12T00:24:43.868Z,102528.91
2022-11-12T00:27:34.307Z,102521.06
2022-11-12T00:30:21.309Z,102526.38
2022-11-12T00:33:09.062Z,102520.22
2022-11-12T00:36:00.789Z,102524.66
2022-11-12T00:38:48.349Z,102514.88
2022-11-12T00:41:35.408Z,102508.75
2022-11-12T00:44:22.763Z,102504.34
2022-11-12T00:47:09.733Z,102512.31
2022-11-12T00:49:57.159Z,102509.69
2022-11-12T00:52:44.321Z,102502.59
2022-11-12T00:55:32.679Z,102501.72
2022-11-12T00:58:19.669Z,102502.59
2022-11-12T01:01:15.309Z,102503.50
2022-11-12T01:04:02.903Z,102501.72
2022-11-12T01:06:50.322Z,102489.31
2022-11-12T01:09:36.819Z,102497.28
2022-11-12T01:12:23.869Z,102501.72
2022-11-12T01:15:11.230Z,102496.38
2022-11-12T01:17:58.209Z,102492.91
2022-11-12T01:20:45.147Z,102490.25
2022-11-12T01:23:35.059Z,102498.19
2022-11-12T01:26:23.613Z,102503.53
2022-11-12T01:29:11.329Z,102512.41
2022-11-12T01:31:58.010Z,102505.31
2022-11-12T01:34:45.289Z,102504.44
2022-11-12T01:37:31.954Z,102507.06
2022-11-12T01:40:19.682Z,102505.31
2022-11-12T01:43:15.459Z,102496.47
2022-11-12T01:46:05.387Z,102492.06
2022-11-12T01:48:55.059Z,102492.94
2022-11-12T01:51:45.302Z,102479.66
2022-11-12T01:54:32.409Z,102478.78
2022-11-12T01:57:26.915Z,102474.38
2022-11-12T02:00:17.780Z,102475.28
2022-11-12T02:03:12.098Z,102470.03
2022-11-12T02:06:02.969Z,102469.97
2022-11-12T02:08:50.787Z,102467.31
2022-11-12T02:11:37.237Z,102464.66
2022-11-12T02:14:24.349Z,102459.31
2022-11-12T02:17:11.126Z,102454.00
2022-11-12T02:20:01.257Z,102452.25
2022-11-12T02:22:48.392Z,102441.63
2022-11-12T02:25:37.257Z,102435.53
2022-11-12T02:28:24.344Z,102442.50
2022-11-12T02:31:11.887Z,102447.03
2022-11-12T02:33:58.477Z,102450.56
2022-11-12T02:36:45.776Z,102443.47
2022-11-12T02:39:32.868Z,102435.53
2022-11-12T02:42:19.700Z,102431.13
2022-11-12T02:45:06.679Z,102434.66
2022-11-12T02:47:54.877Z,102427.59
2022-11-12T02:50:41.537Z,102422.28
2022-11-12T02:53:28.585Z,102428.47
2022-11-12T02:56:15.917Z,102429.38
2022-11-12T02:59:02.957Z,102433.78
2022-11-12T03:01:49.607Z,102429.38
2022-11-12T03:04:36.727Z,102429.38
2022-11-12T03:07:23.457Z,102422.31
2022-11-12T03:10:11.778Z,102422.31
2022-11-12T03:13:00.845Z,102421.44
2022-11-12T03:15:48.171Z,102424.09
2022-11-12T03:18:34.956Z,102426.75
2022-11-12T03:21:22.217Z,102416.16
2022-11-12T03:24:08.880Z,102410.84
2022-11-12T03:26:55.757Z,102408.16
2022-11-12T03:29:42.767Z,102402.84
2022-11-12T03:32:30.119Z,102416.13
2022-11-12T03:35:17.251Z,102412.59
2022-11-12T03:38:04.767Z,102414.34
2022-11-12T03:40:51.580Z,102416.13
2022-11-12T03:43:38.718Z,102418.81
2022-11-12T03:46:25.468Z,102409.97
2022-11-12T03:49:13.388Z,102413.50
2022-11-12T03:52:00.139Z,102411.75
2022-11-12T03:54:47.027Z,102413.50
2022-11-12T03:57:34.424Z,102408.22
2022-11-12T04:00:24.672Z,102406.44
2022-11-12T04:03:11.375Z,102397.66
2022-11-12T04:06:17.103Z,102395.84
2022-11-12T04:09:04.104Z,102397.66
2022-11-12T04:11:51.031Z,102394.94
2022-11-12T04:14:37.715Z,102395.00
2022-11-12T04:17:44.909Z,102387.88
2022-11-12T04:20:50.586Z,102396.72
2022-11-12T04:23:37.595Z,102400.31
2022-11-12T04:26:24.398Z,102394.16
2022-11-12T04:29:35.021Z,102396.78
2022-11-12T04:32:25.694Z,102394.13
2022-11-12T04:35:13.723Z,102380.84
2022-11-12T04:38:00.484Z,102392.34
2022-11-12T04:41:07.305Z,102384.41
2022-11-12T04:44:13.068Z,102382.63
2022-11-12T04:47:00.364Z,102373.78
2022-11-12T04:49:47.605Z,102377.38
2022-11-12T04:52:34.896Z,102364.13
2022-11-12T04:55:21.905Z,102361.41
2022-11-12T04:58:08.966Z,102356.16
2022-11-12T05:00:55.865Z,102357.00
2022-11-12T05:03:44.216Z,102346.44
2022-11-12T05:06:49.893Z,102345.47
2022-11-12T05:09:37.534Z,102344.47
2022-11-12T05:12:24.574Z,102345.41
2022-11-12T05:15:14.665Z,102347.13
2022-11-12T05:18:01.397Z,102349.72
2022-11-12T05:20:51.543Z,102342.41
2022-11-12T05:23:38.657Z,102339.41
2022-11-12T05:26:25.666Z,102331.44
2022-11-12T05:29:12.216Z,102339.94
2022-11-12T05:31:59.475Z,102331.84
2022-11-12T05:34:46.620Z,102331.03
2022-11-12T05:37:33.546Z,102332.63
2022-11-12T05:40:20.746Z,102336.81
2022-11-12T05:43:07.834Z,102343.03
2022-11-12T05:45:54.538Z,102335.84
2022-11-12T05:48:41.544Z,102338.31
2022-11-12T05:51:28.435Z,102331.28
2022-11-12T05:54:16.527Z,102335.88
2022-11-12T05:57:04.513Z,102323.47
2022-11-12T05:59:51.734Z,102314.59
2022-11-12T06:02:38.447Z,102324.31
2022-11-12T06:05:25.385Z,102325.34
2022-11-12T06:08:12.563Z,102313.59
2022-11-12T06:11:01.013Z,102323.47
2022-11-12T06:13:47.786Z,102314.53
2022-11-12T06:16:35.242Z,102321.84
2022-11-12T06:19:21.965Z,102317.34
2022-11-12T06:22:09.003Z,102320.16
2022-11-12T06:24:55.985Z,102325.34
2022-11-12T06:27:43.724Z,102325.38
2022-11-12T06:30:30.504Z,102314.88
2022-11-12T06:33:18.657Z,102307.66
2022-11-12T06:36:06.574Z,102314.94
2022-11-12T06:38:55.253Z,102307.66
2022-11-12T06:41:41.915Z,102316.59
2022-11-12T06:44:29.048Z,102321.16
2022-11-12T06:47:15.900Z,102318.41
2022-11-12T06:50:03.721Z,102312.22
2022-11-12T06:52:50.386Z,102307.78
2022-11-12T06:55:37.375Z,102307.22
2022-11-12T06:58:24.485Z,102315.03
2022-11-12T07:01:14.967Z,102331.84
2022-11-12T07:04:01.655Z,102327.47
2022-11-12T07:06:49.140Z,102329.41
2022-11-12T07:09:36.113Z,102327.66
2022-11-12T07:12:23.394Z,102313.41
2022-11-12T07:15:10.930Z,102303.72
2022-11-12T07:17:58.078Z,102311.69
2022-11-12T07:20:44.645Z,102323.19
2022-11-12T07:23:34.608Z,102319.72
2022-11-12T07:26:25.314Z,102320.56
2022-11-12T07:29:14.736Z,102312.63
2022-11-12T07:32:07.446Z,102308.09
2022-11-12T07:34:55.416Z,102310.06
2022-11-12T07:37:42.005Z,102313.63
2022-11-12T07:40:29.125Z,102309.00
2022-11-12T07:43:15.778Z,102309.94
2022-11-12T07:46:10.768Z,102323.31
2022-11-12T07:48:58.875Z,102309.22
2022-11-12T07:51:46.105Z,102304.78
2022-11-12T07:54:32.765Z,102310.00
2022-11-12T07:57:20.081Z,102307.38
2022-11-12T08:00:08.484Z,102313.63
2022-11-12T08:02:55.885Z,102309.97
2022-11-12T08:05:43.016Z,102314.50
2022-11-12T08:08:31.246Z,102315.31
2022-11-12T08:11:17.995Z,102326.16
2022-11-12T08:14:05.448Z,102321.03
2022-11-12T08:16:52.444Z,102319.41
2022-11-12T08:19:39.506Z,102322.84
2022-11-12T08:22:26.168Z,102315.78
2022-11-12T08:25:13.365Z,102307.03
2022-11-12T08:28:01.015Z,102301.53
2022-11-12T08:30:48.059Z,102299.81
2022-11-12T08:33:35.755Z,102306.88
2022-11-12T08:36:23.670Z,102303.28
2022-11-12T08:39:10.667Z,102305.97
2022-11-12T08:41:57.815Z,102304.16
2022-11-12T08:44:44.776Z,102312.22
2022-11-12T08:47:32.265Z,102303.38
2022-11-12T08:50:19.867Z,102303.41
2022-11-12T08:53:09.463Z,102295.50
2022-11-12T08:55:57.768Z,102295.44
2022-11-12T08:58:44.892Z,102294.53
2022-11-12T09:01:31.666Z,102300.72
2022-11-12T09:04:18.699Z,102304.25
2022-11-12T09:07:09.347Z,102297.16
2022-11-12T09:09:57.101Z,102292.72
2022-11-12T09:12:43.777Z,102297.97
2022-11-12T09:15:39.665Z,102301.63
2022-11-12T09:18:26.800Z,102303.44
2022-11-12T09:21:14.798Z,102297.22
2022-11-12T09:24:01.762Z,102290.25
2022-11-12T09:26:48.726Z,102300.84
2022-11-12T09:29:35.847Z,102300.81
2022-11-12T09:32:22.928Z,102300.72
2022-11-12T09:35:09.909Z,102302.66
2022-11-12T09:37:58.910Z,102298.22
2022-11-12T09:40:51.864Z,102285.84
2022-11-12T09:43:43.612Z,102286.66
2022-11-12T09:46:36.595Z,102289.34
2022-11-12T09:49:29.094Z,102289.34
2022-11-12T09:52:27.963Z,102300.66
2022-11-12T09:55:28.672Z,102299.94
2022-11-12T09:58:18.093Z,102291.94
2022-11-12T10:01:33.835Z,102275.06
2022-11-12T10:04:34.566Z,102271.63
2022-11-12T10:08:02.066Z,102269.59
2022-11-12T10:12:04.563Z,102269.75
2022-11-12T10:15:29.083Z,102249.41
2022-11-12T10:18:24.345Z,102250.34
2022-11-12T10:21:15.702Z,102224.53
2022-11-12T10:24:04.831Z,102217.28
2022-11-12T10:26:52.831Z,102211.03
2022-11-12T10:30:00.425Z,102226.06
2022-11-12T10:32:49.164Z,102226.97
2022-11-12T10:35:37.241Z,102224.31
2022-11-12T10:38:29.209Z,102227.19
2022-11-12T10:41:24.612Z,102218.22
2022-11-12T10:44:15.416Z,102221.63
2022-11-12T10:47:44.951Z,102222.75
2022-11-12T10:50:41.970Z,102216.44
2022-11-12T10:53:37.599Z,102204.19
2022-11-12T10:56:28.045Z,102209.25
2022-11-12T10:59:16.791Z,102199.53
2022-11-12T11:02:18.821Z,102210.16
2022-11-12T11:05:31.502Z,102204.09
2022-11-12T11:08:35.997Z,102200.47
2022-11-12T11:11:28.583Z,102190.91
2022-11-12T11:14:35.617Z,102189.72
2022-11-12T11:17:22.515Z,102186.34
2022-11-12T11:20:24.440Z,102173.13
2022-11-12T11:23:41.701Z,102173.47
2022-11-12T11:27:01.842Z,102158.38
2022-11-12T11:30:19.019Z,102159.09
2022-11-12T11:33:20.886Z,102156.50
2022-11-12T11:36:16.791Z,102149.19
2022-11-12T11:39:31.962Z,102149.03
2022-11-12T11:42:46.533Z,102145.78
2022-11-12T11:45:50.082Z,102149.22
2022-11-12T11:48:39.675Z,102145.72
2022-11-12T11:51:45.772Z,102139.53
2022-11-12T11:54:45.886Z,102140.44
2022-11-12T11:57:40.034Z,102129.78
2022-11-12T12:00:56.752Z,102128.09
2022-11-12T12:04:03.080Z,102126.38
2022-11-12T12:07:11.214Z,102115.72
2022-11-12T12:10:17.656Z,102123.66
2022-11-12T12:13:18.476Z,102121.00
2022-11-12T12:16:31.482Z,102118.41
2022-11-12T12:19:32.714Z,102115.75
2022-11-12T12:22:50.288Z,102110.44
2022-11-12T12:25:41.140Z,102103.03
2022-11-12T12:28:28.401Z,102113.78
2022-11-12T12:31:19.253Z,102106.56
2022-11-12T12:34:23.834Z,102111.81
2022-11-12T12:37:28.039Z,102110.09
2022-11-12T12:40:38.357Z,102110.28
2022-11-12T12:43:40.079Z,102098.72
2022-11-12T12:46:29.867Z,102095.22
2022-11-12T12:49:27.188Z,102108.25
2022-11-12T12:52:17.157Z,102103.00
2022-11-12T12:55:04.179Z,102104.69
2022-11-12T12:57:59.129Z,102104.78
2022-11-12T13:01:08.575Z,102105.69
2022-11-12T13:03:56.399Z,102095.13
2022-11-12T13:06:47.044Z,102101.28
2022-11-12T13:09:35.482Z,102106.13
2022-11-12T13:13:01.333Z,102110.94
2022-11-12T13:15:53.498Z,102111.91
2022-11-12T13:18:40.859Z,102105.34
2022-11-12T13:21:28.416Z,102100.50
2022-11-12T13:24:15.248Z,102101.63
2022-11-12T13:27:02.718Z,102095.75
2022-11-12T13:29:49.596Z,102096.50
2022-11-12T13:32:57.849Z,102103.31
2022-11-12T13:35:45.199Z,102099.97
2022-11-12T13:38:38.389Z,102108.00
2022-11-12T13:41:46.084Z,102101.03
2022-11-12T13:44:35.509Z,102093.16
2022-11-12T13:47:24.966Z,102087.69
2022-11-12T13:50:23.739Z,102093.00
2022-11-12T13:53:18.852Z,102094.00
2022-11-12T13:56:06.446Z,102089.59
2022-11-12T13:58:53.904Z,102081.38
2022-11-12T14:01:41.766Z,102075.38
2022-11-12T14:04:28.595Z,102079.00
2022-11-12T14:07:37.668Z,102079.66
2022-11-12T14:10:46.049Z,102082.56
2022-11-12T14:14:05.608Z,102072.78
2022-11-12T14:16:59.114Z,102078.97
2022-11-12T14:20:11.725Z,102076.44
2022-11-12T14:23:25.428Z,102073.53
2022-11-12T14:26:14.936Z,102063.22
2022-11-12T14:29:01.963Z,102067.56
2022-11-12T14:32:02.226Z,102064.88
2022-11-12T14:34:49.215Z,102071.00
2022-11-12T14:37:42.999Z,102060.44
2022-11-12T14:40:33.764Z,102063.16
2022-11-12T14:43:37.246Z,102061.41
2022-11-12T14:46:27.815Z,102062.28
2022-11-12T14:49:36.514Z,102059.34
2022-11-12T14:52:32.988Z,102052.59
2022-11-12T14:55:26.554Z,102058.63
2022-11-12T14:58:17.841Z,102061.38
2022-11-12T15:02:08.476Z,102056.16
2022-11-12T15:04:45.263Z,102059.56
2022-11-12T15:07:34.648Z,102056.06
2022-11-12T15:10:31.119Z,102064.78
2022-11-12T15:13:20.659Z,102062.25
2022-11-12T15:16:08.678Z,102065.78
2022-11-12T15:19:04.668Z,102066.75
2022-11-12T15:22:03.229Z,102068.59
2022-11-12T15:24:50.533Z,102058.84
2022-11-12T15:27:42.439Z,102061.53
2022-11-12T15:30:32.140Z,102057.81
2022-11-12T15:33:22.910Z,102055.13
2022-11-12T15:36:22.504Z,102063.13
2022-11-12T15:39:14.217Z,102063.06
2022-11-12T15:42:13.013Z,102058.59
2022-11-12T15:45:24.141Z,102054.97
2022-11-12T15:48:12.915Z,102055.84
2022-11-12T15:51:01.232Z,102057.50
2022-11-12T15:53:48.283Z,102066.47
2022-11-12T15:56:35.097Z,102061.00
2022-11-12T15:59:23.073Z,102059.25
2022-11-12T16:02:13.827Z,102059.47
2022-11-12T16:05:02.433Z,102057.41
2022-11-12T16:07:49.302Z,102054.81
2022-11-12T16:10:38.117Z,102064.66
2022-11-12T16:13:31.915Z,102049.28
2022-11-12T16:16:20.085Z,102044.75
2022-11-12T16:19:17.222Z,102035.53
2022-11-12T16:22:12.396Z,102032.78
2022-11-12T16:24:59.491Z,102026.25
2022-11-12T16:27:52.903Z,102026.16
2022-11-12T16:30:43.898Z,102023.19
2022-11-12T16:33:31.531Z,102026.53
2022-11-12T16:36:18.468Z,102019.31
2022-11-12T16:39:14.354Z,102021.91
2022-11-12T16:42:03.646Z,102022.03
2022-11-12T16:44:51.292Z,102017.59
2022-11-12T16:47:44.401Z,102012.34
2022-11-12T16:50:31.462Z,102025.59
2022-11-12T16:53:18.741Z,102023.88
2022-11-12T16:56:13.027Z,102018.69
2022-11-12T16:59:00.444Z,102020.44
2022-11-12T17:01:48.700Z,102027.50
2022-11-12T17:04:38.014Z,102016.94
2022-11-12T17:07:25.181Z,102017.88
2022-11-12T17:10:12.512Z,102010.06
2022-11-12T17:12:59.971Z,102009.19
2022-11-12T17:15:47.008Z,102003.91
2022-11-12T17:18:35.051Z,101999.50
2022-11-12T17:21:22.793Z,102003.13
2022-11-12T17:24:11.532Z,101995.19
2022-11-12T17:27:00.662Z,102000.53
2022-11-12T17:29:47.993Z,101992.69
2022-11-12T17:32:35.057Z,101997.03
2022-11-12T17:35:23.495Z,101993.56
2022-11-12T17:38:10.532Z,101996.13
2022-11-12T17:40:58.642Z,101985.69
2022-11-12T17:43:45.492Z,101994.50
2022-11-12T17:46:33.712Z,101991.06
2022-11-12T17:49:20.586Z,101982.19
2022-11-12T17:52:08.131Z,101978.84
2022-11-12T17:54:54.842Z,101986.69
2022-11-12T17:57:42.074Z,101983.16
2022-11-12T18:00:29.662Z,101977.00
2022-11-12T18:03:21.145Z,101970.63
2022-11-12T18:06:14.724Z,101961.94
2022-11-12T18:09:06.422Z,101956.63
2022-11-12T18:11:57.458Z,101955.81
2022-11-12T18:14:44.683Z,101965.50
2022-11-12T18:17:36.662Z,101955.94
2022-11-12T18:20:24.089Z,101957.81
2022-11-12T18:23:10.835Z,101950.75
2022-11-12T18:25:57.603Z,101945.47
2022-11-12T18:28:45.753Z,101939.34
2022-11-12T18:31:34.493Z,101934.94
2022-11-12T18:34:20.982Z,101925.28
2022-11-12T18:37:08.603Z,101927.13
2022-11-12T18:39:55.601Z,101934.06
2022-11-12T18:42:42.572Z,101928.00
2022-11-12T18:45:29.584Z,101924.31
2022-11-12T18:48:16.574Z,101927.06
2022-11-12T18:51:07.675Z,101931.56
2022-11-12T18:53:56.362Z,101931.38
2022-11-12T18:56:43.492Z,101938.56
2022-11-12T18:59:32.922Z,101930.66
2022-11-12T19:02:20.175Z,101928.84
2022-11-12T19:05:09.288Z,101927.50
2022-11-12T19:07:56.436Z,101938.19
2022-11-12T19:10:43.532Z,101940.75
2022-11-12T19:13:31.079Z,101936.22
2022-11-12T19:16:22.842Z,101933.38
2022-11-12T19:19:10.592Z,101941.09
2022-11-12T19:21:58.948Z,101938.94
2022-11-12T19:24:45.603Z,101935.31
2022-11-12T19:27:32.795Z,101937.06
2022-11-12T19:30:19.622Z,101938.75
2022-11-12T19:33:06.902Z,101946.72
2022-11-12T19:35:54.464Z,101960.88
2022-11-12T19:38:41.623Z,101962.59
2022-11-12T19:41:28.627Z,101967.09
2022-11-12T19:44:16.454Z,101963.59
2022-11-12T19:47:03.152Z,101964.63
2022-11-12T19:49:50.042Z,101966.44
2022-11-12T19:52:37.673Z,101975.41
2022-11-12T19:55:26.073Z,101971.84
2022-11-12T19:58:13.148Z,101973.56
2022-11-12T20:01:05.571Z,101974.63
2022-11-12T20:03:52.243Z,101980.84
2022-11-12T20:06:39.375Z,101979.94
2022-11-12T20:09:26.593Z,101979.16
2022-11-12T20:12:13.626Z,101974.56
2022-11-12T20:15:00.836Z,101966.59
2022-11-12T20:17:47.842Z,101976.44
2022-11-12T20:20:34.841Z,101979.28
2022-11-12T20:23:24.961Z,101985.63
2022-11-12T20:26:15.809Z,101993.41
2022-11-12T20:29:03.207Z,101987.31
2022-11-12T20:31:49.900Z,101987.38
2022-11-12T20:34:37.284Z,101981.81
2022-11-12T20:37:24.032Z,101982.78
2022-11-12T20:40:12.799Z,101983.91
2022-11-12T20:42:59.506Z,101979.59
2022-11-12T20:45:52.472Z,101973.53
2022-11-12T20:48:43.228Z,101974.22
2022-11-12T20:51:31.191Z,101964.75
2022-11-12T20:54:18.151Z,101962.94
2022-11-12T20:57:06.497Z,101964.03
2022-11-12T20:59:53.143Z,101966.69
2022-11-12T21:02:40.241Z,101968.38
2022-11-12T21:05:27.411Z,101957.66
2022-11-12T21:08:15.911Z,101961.22
2022-11-12T21:11:05.892Z,101956.94
2022-11-12T21:13:54.509Z,101950.66
2022-11-12T21:16:41.407Z,101953.25
2022-11-12T21:19:29.856Z,101947.38
2022-11-12T21:22:17.599Z,101950.88
2022-11-12T21:25:04.851Z,101956.91
2022-11-12T21:27:52.436Z,101942.00
2022-11-12T21:30:40.447Z,101935.72
2022-11-12T21:33:27.085Z,101948.94
2022-11-12T21:36:16.759Z,101944.53
2022-11-12T21:39:05.017Z,101940.16
2022-11-12T21:42:10.693Z,101942.06
2022-11-12T21:44:57.435Z,101929.50
2022-11-12T21:47:45.197Z,101928.72
2022-11-12T21:50:31.983Z,101927.88
2022-11-12T21:53:19.883Z,101933.94
2022-11-12T21:56:15.229Z,101938.53
2022-11-12T21:59:04.283Z,101935.91
2022-11-12T22:01:50.913Z,101935.97
2022-11-12T22:04:39.035Z,101938.66
2022-11-12T22:07:25.565Z,101940.25
2022-11-12T22:10:13.783Z,101941.03
2022-11-12T22:13:27.514Z,101934.22
2022-11-12T22:16:16.083Z,101935.97
2022-11-12T22:19:02.578Z,101933.19
2022-11-12T22:21:49.475Z,101931.44
2022-11-12T22:24:36.057Z,101933.38
2022-11-12T22:27:23.847Z,101929.75
2022-11-12T22:30:11.316Z,101922.84
2022-11-12T22:32:58.139Z,101925.59
2022-11-12T22:35:44.907Z,101924.75
2022-11-12T22:38:39.891Z,101924.00
2022-11-12T22:41:29.177Z,101919.66
2022-11-12T22:44:16.229Z,101918.78
2022-11-12T22:47:03.086Z,101923.13
2022-11-12T22:49:50.298Z,101916.84
2022-11-12T22:52:37.006Z,101916.88
2022-11-12T22:55:24.187Z,101914.19
2022-11-12T22:58:10.777Z,101906.31
2022-11-12T23:00:58.107Z,101905.44
2022-11-12T23:03:45.481Z,101904.41
2022-11-12T23:06:32.836Z,101905.44
2022-11-12T23:09:19.493Z,101904.31
2022-11-12T23:12:08.034Z,101898.28
2022-11-12T23:14:54.672Z,101896.34
2022-11-12T23:17:41.534Z,101891.09
2022-11-12T23:20:28.481Z,101890.31
2022-11-12T23:23:15.232Z,101891.16
2022-11-12T23:26:08.132Z,101886.78
2022-11-12T23:28:54.910Z,101883.25
2022-11-12T23:31:41.543Z,101876.91
2022-11-12T23:34:30.173Z,101887.66
2022-11-12T23:37:16.973Z,101874.31
2022-11-12T23:40:04.151Z,101875.25
2022-11-12T23:42:51.940Z,101869.91
2022-11-12T23:45:38.980Z,101868.16
2022-11-12T23:48:25.858Z,101869.00
2022-11-12T23:51:16.211Z,101869.09
2022-11-12T23:54:02.795Z,101867.28
2022-11-12T23:56:49.571Z,101864.59
2022-11-12T23:59:36.280Z,101865.47
